Time;durP1;ratioP1;P1;durP2;ratioP2;P2;SDS_P1;SDS_P2;PMS_P1;PMS_P2;Temp;Humidity;BMP_temperature;BMP_pressure;BME280_temperature;BME280_humidity;BME280_pressure;Samples;Min_cycle;Max_cycle;Signal;HPM_P1;HPM_P2
2023/04/08 00:01:05;;;;;;;0.00;0.00;;;4.80;90.00;;;;;;5115843;28;20096;-88
2023/04/08 00:03:31;;;;;;;0.98;0.98;;;4.80;90.40;;;;;;5115746;28;20481;-88
2023/04/08 00:05:57;;;;;;;0.43;0.43;;;4.70;89.80;;;;;;5098639;28;20055;-87
2023/04/08 00:08:23;;;;;;;0.00;0.00;;;4.70;90.60;;;;;;5114922;28;20051;-88
2023/04/08 00:10:48;;;;;;;0.08;0.00;;;4.60;90.40;;;;;;5081849;28;20135;-88
2023/04/08 00:13:14;;;;;;;2.10;0.50;;;4.60;90.50;;;;;;5115235;28;20079;-88
2023/04/08 00:15:40;;;;;;;2.55;0.88;;;4.60;91.00;;;;;;5098521;28;20043;-88
2023/04/08 00:18:07;;;;;;;0.00;0.00;;;4.60;91.10;;;;;;5098613;28;20124;-88
2023/04/08 00:20:32;;;;;;;0.10;0.10;;;4.50;90.80;;;;;;5098250;28;20093;-88
2023/04/08 00:22:58;;;;;;;0.15;0.15;;;4.50;91.40;;;;;;5081376;28;20040;-88
2023/04/08 00:25:24;;;;;;;0.32;0.32;;;4.60;91.40;;;;;;5094176;28;20043;-88
2023/04/08 00:27:49;;;;;;;0.00;0.00;;;4.50;91.30;;;;;;5078124;28;20079;-88
2023/04/08 00:30:15;;;;;;;0.13;0.10;;;4.50;91.50;;;;;;5078430;28;20039;-88
2023/04/08 00:32:41;;;;;;;0.40;0.38;;;4.50;91.60;;;;;;5077849;28;20082;-88
2023/04/08 00:35:07;;;;;;;0.13;0.00;;;4.60;91.50;;;;;;5094225;28;20047;-88
2023/04/08 00:37:33;;;;;;;1.02;0.75;;;4.50;91.80;;;;;;5077749;28;20052;-88
2023/04/08 00:39:59;;;;;;;0.38;0.38;;;4.50;91.70;;;;;;5077936;28;20135;-88
2023/04/08 00:42:25;;;;;;;0.70;0.00;;;4.40;92.00;;;;;;5077439;28;20072;-88
2023/04/08 00:44:51;;;;;;;0.03;0.00;;;4.40;91.80;;;;;;5095353;28;20131;-88
2023/04/08 00:47:17;;;;;;;0.45;0.30;;;4.40;92.00;;;;;;5077839;28;20055;-88
2023/04/08 00:49:43;;;;;;;9.82;0.63;;;4.40;92.50;;;;;;5094133;28;20510;-88
2023/04/08 00:52:09;;;;;;;0.00;0.00;;;4.40;93.10;;;;;;5094104;28;20065;-88
2023/04/08 00:54:36;;;;;;;0.10;0.08;;;4.40;92.60;;;;;;5077348;28;20052;-88
2023/04/08 00:57:04;;;;;;;0.50;0.25;;;4.40;92.40;;;;;;5094276;28;20047;-88
2023/04/08 00:59:31;;;;;;;0.32;0.10;;;4.30;92.40;;;;;;5061015;28;20076;-88
2023/04/08 01:02:27;;;;;;;0.10;0.10;;;4.30;93.10;;;;;;5094492;28;20153;-88
2023/04/08 01:05:11;;;;;;;0.10;0.10;;;4.30;92.90;;;;;;5077208;28;20047;-89
2023/04/08 01:07:43;;;;;;;0.95;0.80;;;4.30;93.30;;;;;;5110834;28;20052;-88
2023/04/08 01:10:20;;;;;;;0.00;0.00;;;4.30;93.60;;;;;;5094342;28;20117;-88
2023/04/08 01:13:02;;;;;;;0.00;0.00;;;4.30;92.90;;;;;;5093568;28;20084;-88
2023/04/08 01:15:29;;;;;;;0.15;0.15;;;4.30;93.80;;;;;;5077470;28;20056;-88
2023/04/08 01:17:57;;;;;;;0.00;0.00;;;4.30;93.30;;;;;;5094480;28;20059;-88
2023/04/08 01:20:24;;;;;;;0.00;0.00;;;4.30;93.70;;;;;;5093693;28;20052;-88
2023/04/08 01:22:56;;;;;;;0.00;0.00;;;4.30;93.80;;;;;;5094024;28;20441;-88
2023/04/08 01:25:35;;;;;;;0.50;0.32;;;4.20;93.90;;;;;;5076876;28;20077;-87
2023/04/08 01:28:08;;;;;;;0.22;0.22;;;4.20;94.10;;;;;;5093961;28;20399;-88
2023/04/08 01:30:38;;;;;;;0.32;0.10;;;4.20;94.00;;;;;;5094064;28;20107;-88
2023/04/08 01:33:05;;;;;;;5.35;1.52;;;4.20;93.20;;;;;;5093908;28;20055;-88
2023/04/08 01:35:31;;;;;;;0.08;0.00;;;4.10;93.80;;;;;;5093493;28;20056;-88
2023/04/08 01:37:59;;;;;;;0.00;0.00;;;4.10;94.40;;;;;;5093319;28;20063;-88
2023/04/08 01:40:25;;;;;;;0.35;0.10;;;4.00;93.80;;;;;;5093692;28;20388;-88
2023/04/08 01:42:54;;;;;;;3.33;0.52;;;4.00;94.70;;;;;;5093115;28;20043;-87
2023/04/08 01:45:22;;;;;;;0.05;0.03;;;4.00;94.60;;;;;;5092535;28;20044;-88
2023/04/08 01:47:48;;;;;;;0.00;0.00;;;3.90;94.50;;;;;;5093236;28;20055;-88
2023/04/08 01:50:15;;;;;;;0.10;0.00;;;3.80;94.80;;;;;;5076536;28;20083;-88
2023/04/08 01:52:43;;;;;;;0.00;0.00;;;3.80;95.30;;;;;;5076269;28;20052;-88
2023/04/08 01:55:09;;;;;;;0.30;0.30;;;3.80;95.30;;;;;;5093060;28;20480;-88
2023/04/08 01:57:37;;;;;;;1.20;0.10;;;3.80;95.10;;;;;;5092981;28;20127;-88
2023/04/08 02:00:11;;;;;;;0.00;0.00;;;3.70;95.60;;;;;;5093024;28;20428;-88
2023/04/08 02:02:39;;;;;;;0.00;0.00;;;3.70;95.80;;;;;;5076408;28;20079;-88
2023/04/08 02:05:05;;;;;;;0.20;0.20;;;3.60;96.10;;;;;;5092999;28;20142;-88
2023/04/08 02:07:31;;;;;;;0.43;0.20;;;3.60;96.50;;;;;;5075672;28;20051;-88
2023/04/08 02:09:57;;;;;;;0.00;0.00;;;3.50;96.80;;;;;;5092749;28;20483;-88
2023/04/08 02:12:24;;;;;;;1.35;0.10;;;3.50;96.60;;;;;;5076261;28;20044;-88
2023/04/08 02:14:50;;;;;;;0.03;0.00;;;3.40;96.20;;;;;;5092891;28;20052;-88
2023/04/08 02:17:27;;;;;;;1.35;0.10;;;3.40;96.20;;;;;;5059715;28;20128;-87
2023/04/08 02:20:05;;;;;;;0.00;0.00;;;3.40;96.90;;;;;;5075916;28;20491;-88
2023/04/08 02:22:57;;;;;;;0.15;0.05;;;3.40;97.30;;;;;;5076120;28;20138;-87
2023/04/08 02:25:24;;;;;;;0.20;0.10;;;3.30;97.30;;;;;;5092734;28;20573;-87
2023/04/08 02:27:51;;;;;;;0.00;0.00;;;3.30;97.40;;;;;;5092603;28;20071;-87
2023/04/08 02:30:18;;;;;;;0.65;0.50;;;3.20;96.90;;;;;;5076024;28;20048;-87
2023/04/08 02:32:46;;;;;;;0.00;0.00;;;3.20;97.50;;;;;;5092749;28;20527;-87
2023/04/08 02:35:13;;;;;;;0.17;0.10;;;3.20;97.30;;;;;;5092744;28;20070;-87
2023/04/08 02:37:39;;;;;;;0.57;0.00;;;3.10;97.50;;;;;;5092734;28;20056;-87
2023/04/08 02:40:25;;;;;;;1.60;0.43;;;3.10;97.70;;;;;;5075783;28;20131;-88
2023/04/08 02:42:50;;;;;;;3.65;0.88;;;3.10;98.00;;;;;;5092455;28;20052;-88
2023/04/08 02:45:16;;;;;;;0.00;0.00;;;3.20;98.20;;;;;;5075830;28;20445;-87
2023/04/08 02:47:42;;;;;;;0.43;0.38;;;3.20;98.30;;;;;;5092349;28;20044;-87
2023/04/08 02:50:09;;;;;;;0.20;0.20;;;3.20;97.30;;;;;;5093634;28;20044;-87
2023/04/08 02:52:34;;;;;;;0.88;0.30;;;3.20;97.90;;;;;;5059372;28;20407;-88
2023/04/08 02:55:00;;;;;;;0.00;0.00;;;3.20;97.80;;;;;;5109375;28;20040;-87
2023/04/08 02:57:26;;;;;;;0.40;0.30;;;3.20;96.90;;;;;;5112556;28;20123;-87
2023/04/08 02:59:52;;;;;;;0.08;0.08;;;3.10;96.90;;;;;;5079646;28;20495;-87
2023/04/08 03:02:18;;;;;;;3.83;0.30;;;3.10;97.30;;;;;;5096920;28;20040;-87
2023/04/08 03:04:43;;;;;;;0.00;0.00;;;3.10;98.10;;;;;;5096381;28;20134;-88
2023/04/08 03:07:09;;;;;;;0.65;0.10;;;3.10;98.50;;;;;;5096376;28;20507;-87
2023/04/08 03:09:35;;;;;;;0.10;0.00;;;3.10;98.40;;;;;;5079337;28;20441;-87
2023/04/08 03:12:01;;;;;;;0.00;0.00;;;3.10;98.20;;;;;;5079433;28;20044;-87
2023/04/08 03:14:26;;;;;;;0.00;0.00;;;3.00;98.10;;;;;;5079136;28;20051;-88
2023/04/08 03:16:52;;;;;;;0.10;0.10;;;3.00;98.00;;;;;;5079502;28;20454;-87
2023/04/08 03:19:18;;;;;;;0.00;0.00;;;2.90;98.00;;;;;;5096201;28;20510;-87
2023/04/08 03:21:43;;;;;;;0.10;0.10;;;2.90;98.50;;;;;;5096025;28;20071;-87
2023/04/08 03:24:09;;;;;;;2.40;1.27;;;2.90;98.50;;;;;;5095838;28;20134;-87
2023/04/08 03:26:35;;;;;;;0.55;0.38;;;2.90;98.60;;;;;;5062294;28;20097;-87
2023/04/08 03:29:00;;;;;;;4.65;0.80;;;2.80;98.20;;;;;;5078922;28;20040;-88
2023/04/08 03:31:26;;;;;;;0.00;0.00;;;2.80;98.70;;;;;;5062366;28;20403;-87
2023/04/08 03:33:52;;;;;;;0.10;0.10;;;2.70;99.00;;;;;;5096005;28;20116;-88
2023/04/08 03:36:17;;;;;;;0.00;0.00;;;2.70;99.00;;;;;;5062451;28;20040;-87
2023/04/08 03:38:43;;;;;;;0.55;0.43;;;2.70;98.80;;;;;;5095680;28;20087;-87
2023/04/08 03:41:09;;;;;;;0.32;0.00;;;2.70;98.70;;;;;;5078630;28;20040;-88
2023/04/08 03:43:35;;;;;;;0.35;0.17;;;2.60;99.00;;;;;;5078501;28;20044;-87
2023/04/08 03:46:01;;;;;;;0.45;0.20;;;2.60;99.10;;;;;;5079002;28;20385;-87
2023/04/08 03:48:27;;;;;;;0.00;0.00;;;2.60;99.20;;;;;;5078697;28;20078;-87
2023/04/08 03:50:53;;;;;;;0.00;0.00;;;2.60;99.10;;;;;;5062173;28;20047;-87
2023/04/08 03:53:19;;;;;;;0.10;0.10;;;2.50;99.30;;;;;;5078620;28;20094;-87
2023/04/08 03:55:44;;;;;;;0.00;0.00;;;2.50;99.80;;;;;;5078589;28;20054;-87
2023/04/08 03:58:10;;;;;;;0.95;0.43;;;2.50;99.80;;;;;;5062014;28;20050;-87
2023/04/08 04:00:36;;;;;;;3.53;0.20;;;2.50;99.80;;;;;;5078683;28;20078;-87
2023/04/08 04:03:02;;;;;;;0.00;0.00;;;2.50;99.60;;;;;;5061756;28;20101;-87
2023/04/08 04:05:28;;;;;;;0.10;0.00;;;2.40;99.70;;;;;;5095170;28;20083;-87
2023/04/08 04:07:53;;;;;;;0.52;0.35;;;2.40;99.90;;;;;;5094115;28;20048;-87
2023/04/08 04:10:19;;;;;;;0.10;0.10;;;2.40;99.90;;;;;;5094632;28;20052;-87
2023/04/08 04:12:46;;;;;;;0.47;0.47;;;2.50;99.90;;;;;;5094781;28;20086;-87
2023/04/08 04:15:12;;;;;;;0.40;0.22;;;2.50;99.90;;;;;;5079039;28;20138;-87
2023/04/08 04:17:37;;;;;;;0.00;0.00;;;2.50;99.90;;;;;;5078306;28;20563;-87
2023/04/08 04:20:06;;;;;;;0.03;0.03;;;2.60;99.90;;;;;;5078310;28;20125;-87
2023/04/08 04:22:32;;;;;;;4.95;0.32;;;2.60;99.90;;;;;;5077820;28;20093;-87
2023/04/08 04:24:58;;;;;;;0.10;0.10;;;2.70;99.90;;;;;;5077674;28;20044;-87
2023/04/08 04:27:23;;;;;;;0.00;0.00;;;2.70;99.90;;;;;;5094522;28;20476;-87
2023/04/08 04:29:49;;;;;;;0.25;0.00;;;2.80;99.90;;;;;;5077825;28;20040;-87
2023/04/08 04:32:15;;;;;;;0.00;0.00;;;2.80;99.90;;;;;;5061399;28;20392;-87
2023/04/08 04:34:40;;;;;;;0.00;0.00;;;2.80;99.90;;;;;;5077984;28;20040;-88
2023/04/08 04:37:06;;;;;;;0.10;0.10;;;2.90;99.90;;;;;;5094519;28;20036;-87
2023/04/08 04:39:32;;;;;;;1.45;0.20;;;2.90;99.90;;;;;;5077636;28;20063;-88
2023/04/08 04:41:58;;;;;;;0.00;0.00;;;2.90;99.90;;;;;;5044628;28;20055;-87
2023/04/08 04:44:24;;;;;;;0.03;0.00;;;2.90;99.90;;;;;;5077332;28;20048;-88
2023/04/08 04:46:50;;;;;;;0.00;0.00;;;2.90;99.90;;;;;;5077827;28;20040;-87
2023/04/08 04:49:15;;;;;;;0.00;0.00;;;2.90;99.90;;;;;;5077371;28;20101;-87
2023/04/08 04:51:41;;;;;;;0.90;0.32;;;2.90;99.90;;;;;;5094268;28;20036;-87
2023/04/08 04:54:07;;;;;;;0.00;0.00;;;2.90;99.90;;;;;;5077399;28;20047;-87
2023/04/08 04:56:32;;;;;;;0.80;0.30;;;2.90;99.90;;;;;;5078001;28;20051;-87
2023/04/08 04:58:58;;;;;;;0.00;0.00;;;2.90;99.90;;;;;;5077655;28;20044;-88
2023/04/08 05:01:24;;;;;;;0.52;0.00;;;3.00;99.90;;;;;;5077344;28;20044;-87
2023/04/08 05:03:50;;;;;;;0.00;0.00;;;3.00;99.90;;;;;;5077554;28;20048;-87
2023/04/08 05:06:15;;;;;;;0.52;0.35;;;3.00;99.90;;;;;;5077268;28;20369;-87
2023/04/08 05:08:41;;;;;;;0.00;0.00;;;3.20;99.90;;;;;;5059990;28;20404;-87
2023/04/08 05:11:10;;;;;;;0.00;0.00;;;3.10;99.90;;;;;;5077251;28;20387;-87
2023/04/08 05:13:36;;;;;;;0.00;0.00;;;3.20;99.90;;;;;;5093693;28;20092;-87
2023/04/08 05:16:01;;;;;;;0.90;0.20;;;3.20;99.90;;;;;;5093916;28;20044;-87
2023/04/08 05:18:27;;;;;;;0.10;0.00;;;3.30;99.90;;;;;;5093985;28;20056;-86
2023/04/08 05:20:56;;;;;;;0.88;0.60;;;3.30;99.90;;;;;;5093426;28;20076;-86
2023/04/08 05:23:21;;;;;;;0.00;0.00;;;3.40;99.90;;;;;;5076790;28;20075;-87
2023/04/08 05:25:47;;;;;;;0.17;0.17;;;3.50;99.90;;;;;;5060529;28;20434;-87
2023/04/08 05:28:13;;;;;;;0.00;0.00;;;3.60;99.90;;;;;;5093954;28;20052;-87
2023/04/08 05:30:38;;;;;;;0.10;0.10;;;3.60;99.90;;;;;;5077115;28;20044;-87
2023/04/08 05:33:04;;;;;;;0.20;0.00;;;3.70;99.90;;;;;;5076834;28;20048;-87
2023/04/08 05:35:30;;;;;;;3.17;0.30;;;3.80;99.90;;;;;;5076687;28;20036;-86
2023/04/08 05:37:55;;;;;;;0.22;0.22;;;3.80;99.40;;;;;;5076669;28;20135;-87
2023/04/08 05:40:21;;;;;;;0.50;0.35;;;3.90;99.90;;;;;;5060036;28;20044;-86
2023/04/08 05:42:47;;;;;;;0.17;0.08;;;3.90;99.90;;;;;;5092900;28;20062;-86
2023/04/08 05:45:13;;;;;;;0.65;0.35;;;3.90;99.90;;;;;;5093902;28;20052;-85
2023/04/08 05:47:38;;;;;;;0.63;0.20;;;3.90;99.90;;;;;;5059976;28;20048;-87
2023/04/08 05:50:05;;;;;;;0.00;0.00;;;4.00;99.90;;;;;;5093140;28;20233;-86
2023/04/08 05:52:31;;;;;;;0.60;0.55;;;4.00;99.90;;;;;;5076332;28;20047;-86
2023/04/08 05:54:56;;;;;;;0.10;0.10;;;4.00;99.90;;;;;;5076718;28;20158;-86
2023/04/08 05:57:22;;;;;;;0.65;0.47;;;4.00;99.90;;;;;;5077472;28;20079;-86
2023/04/08 05:59:47;;;;;;;0.10;0.10;;;4.10;99.90;;;;;;5061262;28;20130;-86
2023/04/08 06:02:13;;;;;;;0.65;0.20;;;4.10;99.90;;;;;;5060082;28;20078;-86
2023/04/08 06:04:39;;;;;;;0.20;0.20;;;4.20;99.90;;;;;;5076993;28;20055;-86
2023/04/08 06:07:07;;;;;;;0.57;0.22;;;4.20;99.90;;;;;;5060248;28;20095;-86
2023/04/08 06:09:36;;;;;;;0.03;0.03;;;4.30;99.90;;;;;;5093638;28;20044;-86
2023/04/08 06:12:02;;;;;;;0.20;0.20;;;4.30;99.90;;;;;;5059953;28;20055;-86
2023/04/08 06:14:28;;;;;;;1.25;0.75;;;4.40;99.90;;;;;;5093942;28;20051;-86
2023/04/08 06:16:55;;;;;;;0.10;0.10;;;4.50;99.90;;;;;;5112323;28;20134;-85
2023/04/08 06:19:21;;;;;;;2.72;0.00;;;4.60;99.90;;;;;;5108761;28;20052;-86
2023/04/08 06:21:47;;;;;;;0.38;0.13;;;4.60;99.90;;;;;;5078690;28;20055;-86
2023/04/08 06:24:12;;;;;;;0.70;0.70;;;4.70;99.90;;;;;;5089953;28;20131;-86
2023/04/08 06:26:38;;;;;;;0.30;0.30;;;4.70;99.90;;;;;;5084092;28;20052;-86
2023/04/08 06:29:04;;;;;;;0.30;0.00;;;4.70;99.90;;;;;;5093689;28;20462;-86
2023/04/08 06:31:30;;;;;;;0.25;0.22;;;4.90;99.90;;;;;;5081321;28;20043;-87
2023/04/08 06:33:55;;;;;;;0.15;0.15;;;4.90;99.90;;;;;;5075493;28;20131;-86
2023/04/08 06:36:21;;;;;;;0.00;0.00;;;4.90;99.90;;;;;;5078332;28;20051;-89
2023/04/08 06:38:47;;;;;;;1.35;1.10;;;5.10;99.90;;;;;;5110441;28;20071;-88
2023/04/08 06:41:12;;;;;;;1.17;1.10;;;5.20;99.90;;;;;;5110514;28;20058;-88
2023/04/08 06:43:38;;;;;;;0.13;0.10;;;5.40;99.90;;;;;;5094592;28;20044;-88
2023/04/08 06:46:04;;;;;;;0.55;0.55;;;5.60;99.90;;;;;;5110183;28;20079;-87
2023/04/08 06:48:29;;;;;;;0.10;0.10;;;6.00;99.90;;;;;;5094347;28;20125;-86
2023/04/08 06:50:56;;;;;;;0.22;0.22;;;6.40;99.90;;;;;;5087430;28;20052;-87
2023/04/08 06:53:23;;;;;;;3.15;0.50;;;6.90;99.90;;;;;;5075200;28;20044;-88
2023/04/08 06:55:49;;;;;;;0.00;0.00;;;7.40;98.10;;;;;;5075642;28;20411;-87
2023/04/08 06:58:15;;;;;;;0.25;0.25;;;8.10;98.50;;;;;;5109594;28;20040;-87
2023/04/08 07:00:41;;;;;;;1.05;1.02;;;8.70;83.20;;;;;;5075720;28;20101;-87
2023/04/08 07:03:07;;;;;;;3.00;1.55;;;9.40;88.10;;;;;;5075305;28;20043;-86
2023/04/08 07:05:35;;;;;;;4.88;1.40;;;9.70;72.60;;;;;;5109196;28;20072;-86
2023/04/08 07:08:01;;;;;;;3.78;1.27;;;9.60;63.50;;;;;;5075364;28;20056;-86
2023/04/08 07:10:27;;;;;;;0.88;0.40;;;9.50;65.10;;;;;;5092158;28;20091;-87
2023/04/08 07:12:53;;;;;;;0.75;0.55;;;9.80;71.00;;;;;;5091916;28;20059;-86
2023/04/08 07:15:19;;;;;;;1.27;1.17;;;10.30;54.10;;;;;;5075436;28;20097;-86
2023/04/08 07:17:45;;;;;;;0.88;0.88;;;10.40;50.00;;;;;;5092072;28;20043;-88
2023/04/08 07:20:12;;;;;;;6.53;0.55;;;10.70;35.40;;;;;;5075623;28;20102;-88
2023/04/08 07:22:39;;;;;;;1.77;0.88;;;10.90;23.30;;;;;;5092510;28;20044;-86
2023/04/08 07:25:05;;;;;;;1.55;1.08;;;10.90;20.80;;;;;;5092389;28;20071;-87
2023/04/08 07:27:33;;;;;;;0.10;0.10;;;11.10;29.10;;;;;;5092235;28;20104;-91
2023/04/08 07:29:58;;;;;;;4.78;0.47;;;11.50;21.30;;;;;;5092119;28;20040;-88
2023/04/08 07:32:24;;;;;;;0.38;0.10;;;11.90;19.70;;;;;;5075152;28;20491;-86
2023/04/08 07:34:50;;;;;;;1.85;0.75;;;12.40;18.30;;;;;;5075098;28;20056;-85
2023/04/08 07:37:16;;;;;;;0.47;0.47;;;12.40;1.00;;;;;;5109707;28;20040;-88
2023/04/08 07:39:42;;;;;;;0.40;0.40;;;12.90;1.00;;;;;;5109460;28;20062;-91
2023/04/08 07:42:08;;;;;;;0.68;0.68;;;12.80;1.00;;;;;;5092591;28;20044;-85
2023/04/08 07:44:34;;;;;;;0.30;0.30;;;12.80;1.00;;;;;;5110965;28;20102;-87
2023/04/08 07:47:00;;;;;;;1.70;0.90;;;12.60;1.00;;;;;;5082436;28;20054;-95
2023/04/08 07:49:25;;;;;;;1.48;0.75;;;12.20;1.00;;;;;;5079813;28;20040;-87
2023/04/08 07:51:51;;;;;;;0.88;0.63;;;12.50;1.00;;;;;;5095603;28;20132;-87
2023/04/08 07:54:17;;;;;;;1.67;0.93;;;12.50;1.00;;;;;;5095613;28;20118;-87
2023/04/08 07:56:43;;;;;;;1.35;0.10;;;12.60;1.00;;;;;;5096683;28;20058;-87
2023/04/08 07:59:10;;;;;;;0.57;0.30;;;12.20;1.00;;;;;;5078568;28;20076;-86
2023/04/08 08:01:36;;;;;;;0.30;0.30;;;12.10;1.00;;;;;;5095400;28;20051;-86
2023/04/08 08:04:02;;;;;;;5.18;0.60;;;11.80;1.00;;;;;;5078937;28;20071;-86
2023/04/08 08:06:28;;;;;;;0.30;0.30;;;11.20;1.00;;;;;;5096753;28;20128;-87
2023/04/08 08:08:54;;;;;;;5.32;2.45;;;10.90;1.00;;;;;;5078319;28;20082;-87
2023/04/08 08:11:21;;;;;;;0.30;0.30;;;10.50;7.60;;;;;;5095255;28;20130;-87
2023/04/08 08:13:47;;;;;;;0.65;0.65;;;10.30;22.20;;;;;;5078177;28;20116;-87
2023/04/08 08:16:13;;;;;;;1.42;0.88;;;10.30;34.60;;;;;;5111811;28;20040;-86
2023/04/08 08:18:39;;;;;;;0.52;0.32;;;10.40;32.60;;;;;;5061630;28;20055;-86
2023/04/08 08:21:05;;;;;;;0.43;0.43;;;10.40;35.80;;;;;;5095205;28;20040;-86
2023/04/08 08:23:31;;;;;;;0.10;0.10;;;10.50;39.30;;;;;;5078223;28;20050;-87
2023/04/08 08:26:06;;;;;;;0.00;0.00;;;10.50;39.80;;;;;;5112039;28;20533;-87
2023/04/08 08:28:32;;;;;;;1.00;0.85;;;10.70;47.00;;;;;;5077974;28;20040;-87
2023/04/08 08:30:58;;;;;;;0.47;0.30;;;10.80;34.80;;;;;;5111433;28;20044;-87
2023/04/08 08:33:24;;;;;;;1.13;0.57;;;10.70;24.60;;;;;;5094601;28;20135;-87
2023/04/08 08:35:50;;;;;;;0.20;0.20;;;10.60;27.20;;;;;;5111825;28;20139;-86
2023/04/08 08:38:16;;;;;;;0.20;0.20;;;10.70;25.80;;;;;;5111603;28;20083;-86
2023/04/08 08:40:43;;;;;;;1.00;0.63;;;10.60;19.70;;;;;;5077765;28;20056;-86
2023/04/08 08:43:10;;;;;;;0.10;0.10;;;10.60;26.20;;;;;;5094020;28;20059;-86
2023/04/08 08:45:40;;;;;;;0.10;0.10;;;10.60;28.90;;;;;;5094358;28;20044;-86
2023/04/08 08:48:07;;;;;;;0.63;0.63;;;10.60;30.00;;;;;;5077736;28;20052;-86
2023/04/08 08:50:34;;;;;;;0.15;0.10;;;10.40;28.60;;;;;;5077735;28;20076;-86
2023/04/08 08:53:00;;;;;;;2.83;0.60;;;10.50;32.80;;;;;;5077574;28;20103;-86
2023/04/08 08:55:31;;;;;;;5.28;0.20;;;10.50;38.20;;;;;;5093820;28;20063;-85
2023/04/08 08:57:57;;;;;;;0.63;0.38;;;10.60;37.80;;;;;;5077228;28;20086;-86
2023/04/08 09:00:33;;;;;;;0.17;0.17;;;10.70;37.90;;;;;;5077811;28;20052;-86
2023/04/08 09:03:22;;;;;;;0.55;0.30;;;10.80;34.50;;;;;;5094172;28;20418;-86
2023/04/08 09:05:53;;;;;;;0.98;0.52;;;10.90;29.80;;;;;;5077386;28;20043;-86
2023/04/08 09:08:36;;;;;;;3.80;0.70;;;11.10;29.20;;;;;;5093746;28;20045;-86
2023/04/08 09:11:11;;;;;;;0.68;0.30;;;11.20;24.80;;;;;;5094237;28;20143;-86
2023/04/08 09:13:37;;;;;;;0.10;0.10;;;11.30;14.80;;;;;;5106817;28;20123;-86
2023/04/08 09:16:05;;;;;;;0.88;0.22;;;11.40;21.20;;;;;;5094972;28;20056;-86
2023/04/08 09:18:35;;;;;;;0.55;0.52;;;11.50;14.30;;;;;;5099742;28;20050;-86
2023/04/08 09:21:01;;;;;;;0.40;0.40;;;11.50;10.50;;;;;;5102187;28;20079;-86
2023/04/08 09:23:40;;;;;;;0.57;0.20;;;11.40;6.90;;;;;;5101272;28;20404;-88
2023/04/08 09:26:27;;;;;;;0.57;0.10;;;11.20;9.50;;;;;;5080047;28;20528;-85
2023/04/08 09:29:07;;;;;;;0.20;0.20;;;11.00;14.90;;;;;;5102050;28;20134;-85
2023/04/08 09:31:37;;;;;;;1.45;0.30;;;10.90;20.60;;;;;;5095927;28;20051;-84
2023/04/08 09:34:09;;;;;;;0.28;0.28;;;10.70;13.90;;;;;;5103348;28;20052;-84
2023/04/08 09:36:35;;;;;;;1.50;0.60;;;10.90;31.70;;;;;;5096300;28;20123;-87
2023/04/08 09:39:00;;;;;;;1.65;0.43;;;11.20;44.20;;;;;;5071268;28;20127;-87
2023/04/08 09:41:27;;;;;;;0.38;0.38;;;11.60;27.70;;;;;;5107215;28;20127;-87
2023/04/08 09:43:54;;;;;;;0.00;0.00;;;11.90;7.90;;;;;;5096618;28;20085;-87
2023/04/08 09:46:36;;;;;;;0.80;0.25;;;11.80;1.00;;;;;;5096845;28;20043;-88
2023/04/08 09:49:28;;;;;;;0.10;0.10;;;11.90;1.00;;;;;;5096720;28;20071;-87
2023/04/08 09:52:07;;;;;;;0.35;0.10;;;11.80;1.00;;;;;;5113805;28;20055;-87
2023/04/08 09:54:54;;;;;;;1.50;0.70;;;11.90;1.00;;;;;;5113548;28;20043;-87
2023/04/08 09:57:42;;;;;;;0.70;0.30;;;11.70;1.00;;;;;;5081633;28;20454;-87
2023/04/08 10:00:11;;;;;;;0.13;0.10;;;11.60;1.00;;;;;;5093412;28;20042;-87
2023/04/08 10:02:55;;;;;;;1.48;0.88;;;11.60;1.00;;;;;;5092980;28;20055;-86
2023/04/08 10:05:23;;;;;;;1.13;0.38;;;11.40;1.00;;;;;;5093258;28;20044;-88
2023/04/08 10:07:50;;;;;;;2.63;0.70;;;11.50;7.00;;;;;;5074964;28;20052;-87
2023/04/08 10:10:16;;;;;;;0.03;0.00;;;11.80;3.90;;;;;;5076174;28;20048;-86
2023/04/08 10:12:42;;;;;;;2.72;0.00;;;11.90;1.00;;;;;;5092738;28;20051;-86
2023/04/08 10:15:23;;;;;;;0.65;0.32;;;12.20;1.00;;;;;;5075032;28;20109;-86
2023/04/08 10:17:50;;;;;;;0.90;0.22;;;12.40;1.00;;;;;;5092361;28;20048;-86
2023/04/08 10:20:41;;;;;;;0.00;0.00;;;12.10;1.00;;;;;;5075807;28;20502;-86
2023/04/08 10:23:14;;;;;;;0.22;0.22;;;12.30;1.00;;;;;;5092601;28;20071;-86
2023/04/08 10:25:45;;;;;;;0.30;0.30;;;12.40;1.00;;;;;;5092839;28;20048;-86
2023/04/08 10:28:10;;;;;;;2.83;0.40;;;12.50;1.00;;;;;;5075965;28;20492;-86
2023/04/08 10:30:42;;;;;;;0.75;0.75;;;12.60;1.00;;;;;;5075600;28;20157;-86
2023/04/08 10:33:15;;;;;;;0.10;0.10;;;12.70;1.00;;;;;;5075960;28;20048;-86
2023/04/08 10:35:46;;;;;;;0.30;0.30;;;12.80;1.00;;;;;;5092478;28;20055;-87
2023/04/08 10:38:13;;;;;;;1.48;0.90;;;12.90;1.00;;;;;;5092711;28;20058;-86
2023/04/08 10:40:41;;;;;;;2.30;0.77;;;12.70;1.00;;;;;;5092724;28;20375;-86
2023/04/08 10:43:08;;;;;;;0.57;0.38;;;12.50;1.00;;;;;;5075466;28;20179;-86
2023/04/08 10:45:34;;;;;;;0.20;0.10;;;12.30;1.00;;;;;;5075863;28;20097;-86
2023/04/08 10:48:19;;;;;;;0.77;0.17;;;12.10;1.00;;;;;;5092444;28;20052;-86
2023/04/08 10:50:52;;;;;;;;;;;12.00;1.50;;;;;;5092823;28;20075;-87
2023/04/08 10:53:27;;;;;;;0.20;0.20;;;12.00;8.40;;;;;;5092634;28;19967;-87
2023/04/08 10:55:53;;;;;;;0.70;0.57;;;12.10;9.40;;;;;;5092615;28;20052;-87
2023/04/08 10:58:19;;;;;;;3.47;0.52;;;12.10;4.90;;;;;;5075709;28;20044;-87
2023/04/08 11:00:45;;;;;;;0.65;0.10;;;12.20;1.00;;;;;;5092294;28;20501;-87
2023/04/08 11:03:10;;;;;;;0.10;0.10;;;12.20;6.40;;;;;;5075071;28;20044;-86
2023/04/08 11:05:37;;;;;;;0.65;0.65;;;12.20;5.80;;;;;;5092370;28;20040;-86
2023/04/08 11:08:06;;;;;;;0.05;0.05;;;11.90;1.00;;;;;;5075569;28;20063;-86
2023/04/08 11:10:38;;;;;;;0.60;0.40;;;11.70;14.20;;;;;;5092414;28;20044;-87
2023/04/08 11:13:07;;;;;;;0.45;0.40;;;11.60;19.80;;;;;;5074930;28;20495;-86
2023/04/08 11:15:35;;;;;;;0.00;0.00;;;11.50;20.30;;;;;;5092205;28;20052;-87
2023/04/08 11:18:03;;;;;;;0.45;0.40;;;11.50;34.20;;;;;;5093883;28;20086;-87
2023/04/08 11:20:28;;;;;;;0.15;0.15;;;11.50;34.90;;;;;;5096413;28;20052;-86
2023/04/08 11:22:54;;;;;;;0.00;0.00;;;11.60;28.90;;;;;;5079354;28;20062;-86
2023/04/08 11:25:20;;;;;;;0.20;0.20;;;11.70;38.20;;;;;;5096130;28;20036;-87
2023/04/08 11:27:47;;;;;;;0.20;0.20;;;11.80;30.30;;;;;;5079229;28;20048;-86
2023/04/08 11:30:13;;;;;;;0.22;0.22;;;11.90;33.40;;;;;;5079016;28;20150;-87
2023/04/08 11:32:39;;;;;;;0.52;0.30;;;12.00;27.60;;;;;;5079043;28;20547;-87
2023/04/08 11:35:06;;;;;;;0.38;0.38;;;12.10;26.80;;;;;;5079124;28;20048;-87
2023/04/08 11:37:41;;;;;;;0.65;0.08;;;12.10;21.20;;;;;;5079060;28;20484;-87
2023/04/08 11:40:11;;;;;;;0.43;0.20;;;12.10;15.30;;;;;;5095819;28;20503;-86
2023/04/08 11:42:37;;;;;;;0.20;0.20;;;12.00;10.70;;;;;;5095618;28;20055;-87
2023/04/08 11:45:15;;;;;;;0.60;0.47;;;11.90;10.80;;;;;;5095067;28;20361;-87
2023/04/08 11:47:41;;;;;;;0.15;0.05;;;11.90;21.50;;;;;;5079011;28;20048;-87
2023/04/08 11:50:08;;;;;;;0.82;0.15;;;12.00;29.60;;;;;;5095675;28;20446;-87
2023/04/08 11:52:44;;;;;;;0.85;0.63;;;12.00;19.10;;;;;;5095646;28;20399;-87
2023/04/08 11:55:11;;;;;;;0.15;0.15;;;11.70;17.20;;;;;;5062501;28;20438;-87
2023/04/08 11:57:37;;;;;;;0.00;0.00;;;11.70;23.20;;;;;;5095502;28;20083;-87
2023/04/08 12:00:06;;;;;;;0.88;0.63;;;11.70;23.80;;;;;;5078673;28;20517;-87
2023/04/08 12:02:32;;;;;;;0.20;0.20;;;11.70;29.30;;;;;;5078430;28;20117;-87
2023/04/08 12:04:58;;;;;;;1.88;0.57;;;11.80;28.60;;;;;;5078377;28;20484;-87
2023/04/08 12:07:24;;;;;;;0.50;0.50;;;11.60;28.10;;;;;;5094981;28;20052;-87
2023/04/08 12:09:49;;;;;;;0.43;0.43;;;11.60;39.50;;;;;;5078245;28;20094;-87
2023/04/08 12:12:15;;;;;;;1.20;0.40;;;11.40;41.00;;;;;;5078416;28;20050;-87
2023/04/08 12:14:41;;;;;;;0.50;0.50;;;11.40;46.00;;;;;;5078021;28;20132;-87
2023/04/08 12:17:06;;;;;;;1.23;0.63;;;11.30;46.70;;;;;;5078664;28;20036;-87
2023/04/08 12:19:32;;;;;;;0.43;0.43;;;11.30;49.10;;;;;;5095047;28;20568;-87
2023/04/08 12:21:58;;;;;;;0.45;0.45;;;11.30;57.80;;;;;;5078100;28;20051;-87
2023/04/08 12:24:23;;;;;;;1.05;0.55;;;11.30;52.20;;;;;;5094898;28;20055;-87
2023/04/08 12:26:49;;;;;;;0.22;0.22;;;11.30;47.90;;;;;;5078163;28;20051;-88
2023/04/08 12:29:15;;;;;;;0.30;0.20;;;11.30;53.30;;;;;;5077272;28;20499;-85
2023/04/08 12:31:41;;;;;;;0.50;0.50;;;11.20;55.50;;;;;;5078104;28;20452;-87
2023/04/08 12:34:06;;;;;;;1.20;0.55;;;11.20;50.50;;;;;;5077925;28;20043;-87
2023/04/08 12:36:32;;;;;;;0.35;0.35;;;11.20;54.60;;;;;;5094847;28;20076;-87
2023/04/08 12:38:58;;;;;;;0.68;0.57;;;11.10;55.20;;;;;;5061184;28;20484;-87
2023/04/08 12:41:23;;;;;;;0.28;0.28;;;11.10;61.30;;;;;;5077572;28;20127;-87
2023/04/08 12:43:49;;;;;;;1.38;0.60;;;11.20;64.00;;;;;;5077277;28;20044;-87
2023/04/08 12:46:15;;;;;;;0.35;0.35;;;11.20;61.70;;;;;;5077919;28;20051;-87
2023/04/08 12:48:41;;;;;;;0.32;0.32;;;11.10;66.30;;;;;;5077643;28;20070;-87
2023/04/08 12:51:09;;;;;;;0.13;0.13;;;11.10;61.90;;;;;;5077781;28;20135;-87
2023/04/08 12:53:34;;;;;;;4.75;1.20;;;11.30;65.90;;;;;;5094336;28;20083;-87
2023/04/08 12:56:00;;;;;;;0.88;0.85;;;11.30;60.70;;;;;;5078415;28;20084;-93
2023/04/08 12:58:28;;;;;;;0.13;0.13;;;11.10;56.80;;;;;;5095190;28;20502;-92